createdAt,value
2018-02-01T00:00:03.326Z,2.87
2018-02-01T00:02:29.984Z,3.00
2018-02-01T00:04:56.863Z,3.30
2018-02-01T00:07:24.104Z,3.20
2018-02-01T00:09:51.219Z,3.28
2018-02-01T00:12:18.076Z,3.20
2018-02-01T00:14:44.939Z,3.50
2018-02-01T00:17:11.765Z,3.15
2018-02-01T00:19:38.617Z,3.10
2018-02-01T00:22:05.504Z,3.20
2018-02-01T00:24:32.397Z,3.00
2018-02-01T00:26:59.240Z,3.20
2018-02-01T00:29:26.067Z,3.50
2018-02-01T00:31:52.923Z,3.17
2018-02-01T00:34:19.801Z,2.90
2018-02-01T00:36:46.656Z,3.20
2018-02-01T00:39:13.555Z,3.47
2018-02-01T00:41:40.372Z,3.05
2018-02-01T00:44:07.308Z,3.40
2018-02-01T00:46:34.164Z,3.53
2018-02-01T00:49:01.014Z,3.35
2018-02-01T00:51:27.896Z,3.80
2018-02-01T00:53:54.714Z,3.90
2018-02-01T00:56:21.559Z,3.70
2018-02-01T00:58:48.380Z,3.75
2018-02-01T01:01:15.544Z,3.40
2018-02-01T01:03:42.431Z,3.10
2018-02-01T01:06:09.256Z,3.50
2018-02-01T01:08:36.100Z,3.28
2018-02-01T01:11:02.967Z,3.00
2018-02-01T01:13:29.833Z,2.90
2018-02-01T01:15:56.663Z,2.22
2018-02-01T01:18:23.529Z,2.10
2018-02-01T01:20:50.338Z,2.00
2018-02-01T01:23:17.162Z,2.10
2018-02-01T01:25:44.015Z,2.00
2018-02-01T01:28:10.896Z,1.80
2018-02-01T01:30:37.744Z,1.90
2018-02-01T01:33:04.558Z,2.00
2018-02-01T01:35:31.766Z,1.90
2018-02-01T01:37:58.627Z,1.90
2018-02-01T01:40:25.470Z,1.75
2018-02-01T01:42:52.325Z,1.90
2018-02-01T01:45:19.163Z,2.10
2018-02-01T01:47:45.998Z,1.93
2018-02-01T01:50:12.860Z,1.77
2018-02-01T01:52:39.690Z,2.05
2018-02-01T01:55:06.544Z,1.90
2018-02-01T01:57:33.420Z,1.92
2018-02-01T02:00:00.262Z,2.22
2018-02-01T02:02:27.112Z,2.20
2018-02-01T02:04:54.291Z,2.00
2018-02-01T02:07:21.135Z,2.00
2018-02-01T02:09:47.972Z,2.23
2018-02-01T02:12:14.787Z,2.10
2018-02-01T02:14:41.663Z,2.25
2018-02-01T02:17:08.560Z,2.10
2018-02-01T02:19:35.453Z,2.05
2018-02-01T02:22:02.305Z,2.50
2018-02-01T02:24:29.110Z,2.10
2018-02-01T02:26:55.980Z,2.03
2018-02-01T02:29:22.820Z,2.25
2018-02-01T02:31:49.637Z,2.12
2018-02-01T02:34:16.528Z,2.10
2018-02-01T02:36:43.361Z,2.50
2018-02-01T02:39:10.224Z,2.30
2018-02-01T02:41:37.035Z,2.35
2018-02-01T02:44:03.879Z,2.30
2018-02-01T02:46:30.740Z,2.60
2018-02-01T02:48:57.571Z,2.30
2018-02-01T02:51:24.459Z,2.62
2018-02-01T02:53:51.286Z,2.60
2018-02-01T02:56:18.498Z,3.08
2018-02-01T02:58:46.226Z,2.60
2018-02-01T03:01:13.078Z,2.70
2018-02-01T03:03:39.951Z,2.35
2018-02-01T03:06:06.814Z,2.58
2018-02-01T03:08:33.687Z,2.40
2018-02-01T03:11:00.787Z,2.30
2018-02-01T03:13:27.614Z,2.50
2018-02-01T03:15:54.520Z,2.37
2018-02-01T03:18:21.338Z,2.50
2018-02-01T03:20:48.466Z,2.87
2018-02-01T03:23:15.298Z,2.70
2018-02-01T03:25:42.143Z,2.50
2018-02-01T03:28:09.312Z,2.20
2018-02-01T03:30:36.461Z,1.97
2018-02-01T03:33:03.278Z,2.55
2018-02-01T03:35:30.142Z,2.70
2018-02-01T03:37:56.991Z,2.40
2018-02-01T03:40:23.839Z,2.40
2018-02-01T03:42:50.706Z,2.42
2018-02-01T03:45:17.596Z,3.00
2018-02-01T03:47:44.435Z,2.60
2018-02-01T03:50:11.271Z,2.53
2018-02-01T03:52:38.155Z,2.97
2018-02-01T03:55:04.979Z,2.80
2018-02-01T03:57:31.793Z,2.42
2018-02-01T03:59:58.608Z,2.65
2018-02-01T04:02:25.448Z,3.30
2018-02-01T04:04:52.273Z,3.00
2018-02-01T04:07:19.148Z,3.70
2018-02-01T04:09:46.027Z,3.50
2018-02-01T04:12:12.829Z,3.95
2018-02-01T04:14:39.705Z,4.75
2018-02-01T04:17:06.882Z,4.93
2018-02-01T04:19:33.765Z,5.40
2018-02-01T04:22:00.615Z,5.22
2018-02-01T04:24:27.463Z,5.50
2018-02-01T04:26:54.355Z,5.37
2018-02-01T04:29:21.163Z,5.80
2018-02-01T04:31:48.040Z,5.60
2018-02-01T04:34:14.850Z,5.72
2018-02-01T04:36:41.671Z,6.12
2018-02-01T04:39:08.503Z,6.25
2018-02-01T04:41:35.364Z,6.03
2018-02-01T04:44:02.194Z,6.07
2018-02-01T04:46:29.019Z,6.40
2018-02-01T04:48:55.878Z,6.30
2018-02-01T04:51:22.711Z,6.43
2018-02-01T04:53:49.559Z,7.00
2018-02-01T04:56:16.424Z,6.97
2018-02-01T04:58:43.312Z,6.85
2018-02-01T05:01:10.146Z,6.93
2018-02-01T05:03:37.124Z,7.15
2018-02-01T05:06:04.775Z,7.35
2018-02-01T05:08:31.594Z,6.90
2018-02-01T05:10:58.418Z,7.40
2018-02-01T05:13:25.307Z,7.50
2018-02-01T05:15:52.168Z,7.65
2018-02-01T05:18:18.993Z,7.60
2018-02-01T05:20:45.839Z,7.90
2018-02-01T05:23:12.688Z,7.97
2018-02-01T05:25:39.537Z,8.60
2018-02-01T05:28:06.387Z,8.30
2018-02-01T05:30:33.248Z,8.50
2018-02-01T05:33:00.071Z,8.20
2018-02-01T05:35:26.892Z,8.60
2018-02-01T05:37:53.757Z,8.90
2018-02-01T05:40:20.607Z,8.80
2018-02-01T05:42:47.440Z,9.67
2018-02-01T05:45:14.320Z,9.20
2018-02-01T05:47:41.142Z,9.43
2018-02-01T05:50:08.004Z,10.10
2018-02-01T05:52:35.204Z,9.53
2018-02-01T05:55:02.053Z,10.00
2018-02-01T05:57:28.931Z,9.90
2018-02-01T05:59:55.774Z,9.90
2018-02-01T06:02:22.633Z,9.80
2018-02-01T06:04:49.454Z,9.52
2018-02-01T06:07:16.325Z,10.35
2018-02-01T06:09:43.209Z,10.50
2018-02-01T06:12:10.067Z,10.80
2018-02-01T06:14:36.958Z,10.40
2018-02-01T06:17:03.812Z,10.35
2018-02-01T06:19:30.674Z,10.82
2018-02-01T06:21:57.514Z,10.73
2018-02-01T06:24:24.380Z,11.00
2018-02-01T06:26:51.267Z,11.20
2018-02-01T06:29:18.196Z,10.50
2018-02-01T06:31:45.019Z,10.18
2018-02-01T06:34:11.872Z,10.25
2018-02-01T06:36:38.708Z,9.85
2018-02-01T06:39:05.556Z,9.85
2018-02-01T06:41:32.451Z,10.35
2018-02-01T06:43:59.321Z,9.80
2018-02-01T06:46:26.199Z,10.38
2018-02-01T06:48:53.088Z,9.75
2018-02-01T06:51:19.976Z,10.20
2018-02-01T06:53:46.827Z,9.95
2018-02-01T06:56:13.638Z,10.25
2018-02-01T06:58:40.787Z,9.90
2018-02-01T07:01:07.611Z,9.55
2018-02-01T07:03:34.422Z,9.20
2018-02-01T07:06:01.309Z,9.38
2018-02-01T07:08:28.158Z,9.32
2018-02-01T07:10:54.979Z,9.52
2018-02-01T07:13:21.807Z,9.60
2018-02-01T07:15:48.627Z,10.13
2018-02-01T07:18:15.470Z,13.27
2018-02-01T07:20:42.587Z,12.07
2018-02-01T07:23:09.423Z,10.80
2018-02-01T07:25:36.274Z,9.75
2018-02-01T07:28:03.131Z,10.70
2018-02-01T07:30:29.976Z,11.00
2018-02-01T07:32:57.208Z,10.02
2018-02-01T07:35:24.088Z,9.73
2018-02-01T07:37:51.308Z,9.93
2018-02-01T07:40:18.114Z,9.80
2018-02-01T07:42:44.942Z,10.60
2018-02-01T07:45:11.818Z,9.30
2018-02-01T07:47:38.704Z,9.75
2018-02-01T07:50:05.576Z,9.95
2018-02-01T07:52:32.508Z,9.70
2018-02-01T07:54:59.334Z,9.65
2018-02-01T07:57:26.212Z,10.02
2018-02-01T07:59:53.034Z,9.57
2018-02-01T08:02:19.875Z,8.93
2018-02-01T08:04:46.780Z,9.40
2018-02-01T08:07:13.607Z,9.30
2018-02-01T08:09:40.438Z,8.85
2018-02-01T08:12:07.288Z,9.30
2018-02-01T08:14:34.160Z,10.30
2018-02-01T08:17:01.389Z,9.40
2018-02-01T08:19:28.252Z,9.70
2018-02-01T08:21:55.109Z,9.75
2018-02-01T08:24:21.935Z,9.52
2018-02-01T08:26:48.792Z,9.88
2018-02-01T08:29:15.652Z,10.10
2018-02-01T08:31:42.512Z,10.00
2018-02-01T08:34:09.354Z,10.10
2018-02-01T08:36:36.208Z,9.60
2018-02-01T08:39:03.072Z,9.43
2018-02-01T08:41:29.956Z,10.00
2018-02-01T08:43:56.840Z,10.10
2018-02-01T08:46:23.732Z,10.43
2018-02-01T08:48:50.599Z,11.23
2018-02-01T08:51:17.859Z,10.73
2018-02-01T08:53:44.984Z,11.25
2018-02-01T08:56:11.801Z,11.10
2018-02-01T08:58:38.704Z,11.43
2018-02-01T09:01:05.631Z,10.30
2018-02-01T09:03:32.456Z,11.25
2018-02-01T09:05:59.275Z,10.40
2018-02-01T09:08:26.115Z,10.63
2018-02-01T09:10:52.989Z,11.12
2018-02-01T09:13:19.864Z,12.68
2018-02-01T09:15:46.698Z,12.40
2018-02-01T09:18:13.555Z,11.23
2018-02-01T09:20:40.769Z,11.45
2018-02-01T09:23:07.628Z,11.90
2018-02-01T09:25:34.489Z,11.80
2018-02-01T09:28:01.603Z,11.88
2018-02-01T09:30:28.456Z,10.88
2018-02-01T09:32:55.274Z,11.70
2018-02-01T09:35:22.114Z,12.13
2018-02-01T09:37:48.938Z,12.00
2018-02-01T09:40:15.811Z,11.98
2018-02-01T09:42:42.660Z,11.77
2018-02-01T09:45:09.501Z,11.88
2018-02-01T09:47:36.315Z,11.85
2018-02-01T09:50:03.171Z,10.95
2018-02-01T09:52:30.059Z,10.75
2018-02-01T09:54:56.956Z,10.50
2018-02-01T09:57:23.849Z,10.48
2018-02-01T09:59:50.679Z,10.23
2018-02-01T10:02:17.519Z,10.10
2018-02-01T10:04:44.334Z,9.80
2018-02-01T10:07:11.296Z,9.40
2018-02-01T10:09:38.230Z,10.43
2018-02-01T10:12:05.075Z,10.30
2018-02-01T10:14:31.934Z,9.90
2018-02-01T10:16:58.816Z,9.82
2018-02-01T10:19:25.667Z,9.80
2018-02-01T10:21:52.532Z,10.38
2018-02-01T10:24:19.396Z,9.60
2018-02-01T10:26:46.296Z,9.63
2018-02-01T10:29:13.501Z,10.20
2018-02-01T10:31:40.315Z,10.18
2018-02-01T10:34:07.151Z,9.50
2018-02-01T10:36:33.972Z,9.75
2018-02-01T10:39:00.844Z,9.80
2018-02-01T10:41:28.025Z,9.40
2018-02-01T10:43:54.870Z,8.80
2018-02-01T10:46:21.703Z,9.93
2018-02-01T10:48:48.554Z,9.07
2018-02-01T10:51:15.411Z,9.63
2018-02-01T10:53:42.321Z,9.00
2018-02-01T10:56:09.192Z,8.77
2018-02-01T10:58:36.032Z,9.20
2018-02-01T11:01:02.892Z,10.10
2018-02-01T11:03:29.743Z,8.80
2018-02-01T11:05:56.840Z,8.68
2018-02-01T11:08:23.680Z,9.50
2018-02-01T11:10:50.536Z,8.52
2018-02-01T11:13:17.338Z,8.85
2018-02-01T11:15:44.162Z,8.50
2018-02-01T11:18:10.978Z,8.77
2018-02-01T11:20:37.835Z,8.00
2018-02-01T11:23:04.687Z,9.00
2018-02-01T11:25:31.502Z,8.07
2018-02-01T11:27:58.354Z,8.73
2018-02-01T11:30:25.162Z,8.68
2018-02-01T11:32:52.031Z,8.23
2018-02-01T11:35:18.863Z,7.40
2018-02-01T11:37:45.724Z,7.62
2018-02-01T11:40:12.589Z,7.43
2018-02-01T11:42:39.449Z,6.80
2018-02-01T11:45:06.311Z,7.40
2018-02-01T11:47:33.156Z,7.10
2018-02-01T11:50:00.044Z,6.82
2018-02-01T11:52:27.200Z,7.10
2018-02-01T11:54:54.077Z,6.90
2018-02-01T11:57:20.921Z,6.60
2018-02-01T11:59:47.780Z,6.28
2018-02-01T12:02:14.595Z,6.90
2018-02-01T12:04:41.710Z,5.93
2018-02-01T12:07:08.564Z,6.05
2018-02-01T12:09:35.424Z,6.28
2018-02-01T12:12:02.291Z,6.30
2018-02-01T12:14:29.141Z,5.80
2018-02-01T12:16:55.973Z,5.80
2018-02-01T12:19:22.823Z,5.30
2018-02-01T12:21:49.672Z,5.32
2018-02-01T12:24:16.494Z,5.53
2018-02-01T12:26:43.360Z,5.63
2018-02-01T12:29:10.236Z,4.80
2018-02-01T12:31:37.104Z,5.33
2018-02-01T12:34:03.941Z,5.10
2018-02-01T12:36:30.754Z,5.20
2018-02-01T12:38:57.821Z,4.65
2018-02-01T12:41:24.975Z,5.00
2018-02-01T12:43:51.820Z,4.97
2018-02-01T12:46:18.640Z,4.82
2018-02-01T12:48:45.443Z,4.70
2018-02-01T12:51:12.313Z,4.53
2018-02-01T12:53:39.118Z,4.40
2018-02-01T12:56:05.988Z,4.45
2018-02-01T12:58:33.079Z,4.22
2018-02-01T13:00:59.920Z,4.13
2018-02-01T13:03:26.747Z,3.87
2018-02-01T13:05:53.592Z,4.10
2018-02-01T13:08:20.432Z,3.97
2018-02-01T13:10:47.278Z,8.05
2018-02-01T13:13:14.136Z,3.50
2018-02-01T13:15:40.970Z,3.62
2018-02-01T13:18:07.797Z,3.80
2018-02-01T13:20:34.638Z,3.50
2018-02-01T13:23:01.511Z,3.42
2018-02-01T13:25:28.369Z,3.47
2018-02-01T13:27:55.211Z,3.50
2018-02-01T13:30:22.053Z,3.25
2018-02-01T13:32:48.907Z,3.50
2018-02-01T13:35:15.710Z,3.37
2018-02-01T13:37:42.880Z,3.70
2018-02-01T13:40:09.687Z,3.33
2018-02-01T13:42:36.546Z,3.70
2018-02-01T13:45:03.388Z,3.62
2018-02-01T13:47:30.250Z,3.20
2018-02-01T13:49:57.071Z,3.72
2018-02-01T13:52:23.917Z,2.95
2018-02-01T13:54:50.735Z,3.60
2018-02-01T13:57:17.558Z,3.90
2018-02-01T13:59:44.414Z,3.25
2018-02-01T14:02:11.218Z,3.33
2018-02-01T14:04:38.077Z,2.80
2018-02-01T14:07:05.230Z,3.20
2018-02-01T14:09:32.035Z,2.90
2018-02-01T14:11:58.901Z,3.40
2018-02-01T14:14:25.736Z,3.30
2018-02-01T14:16:52.583Z,2.80
2018-02-01T14:19:19.427Z,2.97
2018-02-01T14:21:46.234Z,3.00
2018-02-01T14:24:13.092Z,2.80
2018-02-01T14:26:39.907Z,2.75
2018-02-01T14:29:06.783Z,3.20
2018-02-01T14:31:33.597Z,2.90
2018-02-01T14:34:00.472Z,2.80
2018-02-01T14:36:27.312Z,2.80
2018-02-01T14:38:54.159Z,2.47
2018-02-01T14:41:20.967Z,2.77
2018-02-01T14:43:47.783Z,2.60
2018-02-01T14:46:14.594Z,2.90
2018-02-01T14:48:41.430Z,3.00
2018-02-01T14:51:08.238Z,2.90
2018-02-01T14:53:35.111Z,2.70
2018-02-01T14:56:01.968Z,3.20
2018-02-01T14:58:28.827Z,3.08
2018-02-01T15:00:55.727Z,3.10
2018-02-01T15:03:22.568Z,2.70
2018-02-01T15:05:49.429Z,2.60
2018-02-01T15:08:16.261Z,2.80
2018-02-01T15:10:43.327Z,2.80
2018-02-01T15:13:10.176Z,2.50
2018-02-01T15:15:36.992Z,2.30
2018-02-01T15:18:03.806Z,3.00
2018-02-01T15:20:30.912Z,2.90
2018-02-01T15:22:57.726Z,2.70
2018-02-01T15:25:24.575Z,3.00
2018-02-01T15:27:51.412Z,2.92
2018-02-01T15:30:18.458Z,2.90
2018-02-01T15:32:45.274Z,2.90
2018-02-01T15:35:12.119Z,5.82
2018-02-01T15:37:38.995Z,2.90
2018-02-01T15:40:05.895Z,2.62
2018-02-01T15:42:32.709Z,2.80
2018-02-01T15:44:59.560Z,3.08
2018-02-01T15:47:26.367Z,4.25
2018-02-01T15:49:53.206Z,3.00
2018-02-01T15:52:20.022Z,3.08
2018-02-01T15:54:46.922Z,3.12
2018-02-01T15:57:13.772Z,3.33
2018-02-01T15:59:40.916Z,3.40
2018-02-01T16:02:07.734Z,2.90
2018-02-01T16:04:34.605Z,3.10
2018-02-01T16:07:01.848Z,3.53
2018-02-01T16:09:28.704Z,3.20
2018-02-01T16:11:55.528Z,3.50
2018-02-01T16:14:22.398Z,2.80
2018-02-01T16:16:49.483Z,2.60
2018-02-01T16:19:16.326Z,3.00
2018-02-01T16:21:43.146Z,3.15
2018-02-01T16:24:10.005Z,2.90
2018-02-01T16:26:36.846Z,3.00
2018-02-01T16:29:03.662Z,2.85
2018-02-01T16:31:30.512Z,2.80
2018-02-01T16:33:57.342Z,3.37
2018-02-01T16:36:24.154Z,2.47
2018-02-01T16:38:50.983Z,2.50
2018-02-01T16:41:17.817Z,2.80
2018-02-01T16:43:44.657Z,3.20
2018-02-01T16:46:11.751Z,2.72
2018-02-01T16:48:38.895Z,2.97
2018-02-01T16:51:05.710Z,2.90
2018-02-01T16:53:32.526Z,3.30
2018-02-01T16:55:59.432Z,2.70
2018-02-01T16:58:26.270Z,2.92
2018-02-01T17:00:53.078Z,2.70
2018-02-01T17:03:19.936Z,3.10
2018-02-01T17:05:46.776Z,2.92
2018-02-01T17:08:13.616Z,2.67
2018-02-01T17:10:40.442Z,3.10
2018-02-01T17:13:07.266Z,3.53
2018-02-01T17:15:34.381Z,2.72
2018-02-01T17:18:01.191Z,2.75
2018-02-01T17:20:28.007Z,2.78
2018-02-01T17:22:54.848Z,3.50
2018-02-01T17:25:21.704Z,3.28
2018-02-01T17:27:48.510Z,3.20
2018-02-01T17:30:15.338Z,3.50
2018-02-01T17:32:42.181Z,3.53
2018-02-01T17:35:09.035Z,3.58
2018-02-01T17:37:35.840Z,4.00
2018-02-01T17:40:03.017Z,4.00
2018-02-01T17:42:29.880Z,4.30
2018-02-01T17:44:57.245Z,4.60
2018-02-01T17:47:24.092Z,5.10
2018-02-01T17:49:50.923Z,5.30
2018-02-01T17:52:17.751Z,5.72
2018-02-01T17:54:44.619Z,6.28
2018-02-01T17:57:11.463Z,6.25
2018-02-01T17:59:38.312Z,6.55
2018-02-01T18:02:05.192Z,7.00
2018-02-01T18:04:32.072Z,7.32
2018-02-01T18:06:58.886Z,7.18
2018-02-01T18:09:25.727Z,7.10
2018-02-01T18:11:52.559Z,7.00
2018-02-01T18:14:19.399Z,7.50
2018-02-01T18:16:46.210Z,7.47
2018-02-01T18:19:13.038Z,7.20
2018-02-01T18:21:39.857Z,7.95
2018-02-01T18:24:07.021Z,8.15
2018-02-01T18:26:33.875Z,8.10
2018-02-01T18:29:00.686Z,8.77
2018-02-01T18:31:27.552Z,8.60
2018-02-01T18:33:54.400Z,8.30
2018-02-01T18:36:21.206Z,9.60
2018-02-01T18:38:48.035Z,9.10
2018-02-01T18:41:14.860Z,10.27
2018-02-01T18:43:41.968Z,10.40
2018-02-01T18:46:08.824Z,10.65
2018-02-01T18:48:35.672Z,11.40
2018-02-01T18:51:02.793Z,11.90
2018-02-01T18:53:29.668Z,12.30
2018-02-01T18:55:57.254Z,12.20
2018-02-01T18:58:24.086Z,12.88
2018-02-01T19:00:50.947Z,12.43
2018-02-01T19:03:17.806Z,13.38
2018-02-01T19:05:44.673Z,13.38
2018-02-01T19:08:11.510Z,12.90
2018-02-01T19:10:38.442Z,12.80
2018-02-01T19:13:05.275Z,12.73
2018-02-01T19:15:32.102Z,11.90
2018-02-01T19:17:58.962Z,11.55
2018-02-01T19:20:25.816Z,12.40
2018-02-01T19:22:52.669Z,11.20
2018-02-01T19:25:19.529Z,10.70
2018-02-01T19:27:46.385Z,10.68
2018-02-01T19:30:13.206Z,10.23
2018-02-01T19:32:40.047Z,10.40
2018-02-01T19:35:06.858Z,9.50
2018-02-01T19:37:33.671Z,9.30
2018-02-01T19:40:00.526Z,9.10
2018-02-01T19:42:27.338Z,9.00
2018-02-01T19:44:54.196Z,9.18
2018-02-01T19:47:21.024Z,9.30
2018-02-01T19:49:47.860Z,8.30
2018-02-01T19:52:14.686Z,9.17
2018-02-01T19:54:41.500Z,8.80
2018-02-01T19:57:08.368Z,8.95
2018-02-01T19:59:35.195Z,9.05
2018-02-01T20:02:02.011Z,8.30
2018-02-01T20:04:28.822Z,8.80
2018-02-01T20:06:55.968Z,8.27
2018-02-01T20:09:22.774Z,8.63
2018-02-01T20:11:49.613Z,8.25
2018-02-01T20:14:16.422Z,8.60
2018-02-01T20:16:43.258Z,7.93
2018-02-01T20:19:10.094Z,8.00
2018-02-01T20:21:36.944Z,7.50
2018-02-01T20:24:03.796Z,8.07
2018-02-01T20:26:30.635Z,7.87
2018-02-01T20:28:57.496Z,8.00
2018-02-01T20:31:24.338Z,8.27
2018-02-01T20:33:51.188Z,7.20
2018-02-01T20:36:18.040Z,7.68
2018-02-01T20:38:44.912Z,7.22
2018-02-01T20:41:11.763Z,7.50
2018-02-01T20:43:38.604Z,8.00
2018-02-01T20:46:05.434Z,7.18
2018-02-01T20:48:32.276Z,7.00
2018-02-01T20:50:59.100Z,8.13
2018-02-01T20:53:25.959Z,7.40
2018-02-01T20:55:52.796Z,7.50
2018-02-01T20:58:19.636Z,7.70
2018-02-01T21:00:46.496Z,7.40
2018-02-01T21:03:13.340Z,7.72
2018-02-01T21:05:40.508Z,8.05
2018-02-01T21:08:07.375Z,8.85
2018-02-01T21:10:34.219Z,8.88
2018-02-01T21:13:01.046Z,8.75
2018-02-01T21:15:27.851Z,8.93
2018-02-01T21:17:54.697Z,8.30
2018-02-01T21:20:21.556Z,8.90
2018-02-01T21:22:48.427Z,8.70
2018-02-01T21:25:15.258Z,9.13
2018-02-01T21:27:42.103Z,9.05
2018-02-01T21:30:08.947Z,9.43
2018-02-01T21:32:35.812Z,10.10
2018-02-01T21:35:02.661Z,9.32
2018-02-01T21:37:29.470Z,8.98
2018-02-01T21:39:56.307Z,9.10
2018-02-01T21:42:23.131Z,9.27
2018-02-01T21:44:49.950Z,9.93
2018-02-01T21:47:16.782Z,9.80
2018-02-01T21:49:43.614Z,9.60
2018-02-01T21:52:10.494Z,10.60
2018-02-01T21:54:37.570Z,10.13
2018-02-01T21:57:04.715Z,9.80
2018-02-01T21:59:31.869Z,10.45
2018-02-01T22:01:58.708Z,10.80
2018-02-01T22:04:25.523Z,10.18
2018-02-01T22:06:52.365Z,10.40
2018-02-01T22:09:19.250Z,11.20
2018-02-01T22:11:46.088Z,10.93
2018-02-01T22:14:12.936Z,11.73
2018-02-01T22:16:39.808Z,11.00
2018-02-01T22:19:06.642Z,11.50
2018-02-01T22:21:33.459Z,11.30
2018-02-01T22:24:00.315Z,11.32
2018-02-01T22:26:27.172Z,11.30
2018-02-01T22:28:54.018Z,10.80
2018-02-01T22:31:20.835Z,9.85
2018-02-01T22:33:47.699Z,9.80
2018-02-01T22:36:14.542Z,9.82
2018-02-01T22:38:41.399Z,16.77
2018-02-01T22:41:08.226Z,11.68
2018-02-01T22:43:35.104Z,9.60
2018-02-01T22:46:01.931Z,10.00
2018-02-01T22:48:28.770Z,8.82
2018-02-01T22:50:55.883Z,10.10
2018-02-01T22:53:22.718Z,9.32
2018-02-01T22:55:49.555Z,9.50
2018-02-01T22:58:16.391Z,10.57
2018-02-01T23:00:43.563Z,10.25
2018-02-01T23:03:10.479Z,9.93
2018-02-01T23:05:37.344Z,10.07
2018-02-01T23:08:04.195Z,10.50
2018-02-01T23:10:31.031Z,10.82
2018-02-01T23:12:58.820Z,10.55
2018-02-01T23:15:25.696Z,10.85
2018-02-01T23:17:52.561Z,10.68
2018-02-01T23:20:19.398Z,10.40
2018-02-01T23:22:46.264Z,11.00
2018-02-01T23:25:13.129Z,10.80
2018-02-01T23:27:39.983Z,10.80
2018-02-01T23:30:06.856Z,10.75
2018-02-01T23:32:33.744Z,11.05
2018-02-01T23:35:00.556Z,10.95
2018-02-01T23:37:27.416Z,10.95
2018-02-01T23:39:54.264Z,10.63
2018-02-01T23:42:21.130Z,11.30
2018-02-01T23:44:47.970Z,10.67
2018-02-01T23:47:14.786Z,11.37
2018-02-01T23:49:41.660Z,10.80
2018-02-01T23:52:08.523Z,10.30
2018-02-01T23:54:35.385Z,10.85
2018-02-01T23:57:02.259Z,10.02
